sensor_id;sensor_type;location;lat;lon;timestamp;P1;durP1;ratioP1;P2;durP2;ratioP2
75634;SDS011;64227;48.724;9.104;2022-12-28T00:00:16;2.90;;;2.00;;
75634;SDS011;64227;48.724;9.104;2022-12-28T00:02:42;5.35;;;2.00;;
75634;SDS011;64227;48.724;9.104;2022-12-28T00:05:07;3.83;;;1.60;;
75634;SDS011;64227;48.724;9.104;2022-12-28T00:07:33;2.78;;;1.98;;
75634;SDS011;64227;48.724;9.104;2022-12-28T00:09:58;2.17;;;1.27;;
75634;SDS011;64227;48.724;9.104;2022-12-28T00:12:23;2.17;;;1.40;;
75634;SDS011;64227;48.724;9.104;2022-12-28T00:14:49;2.58;;;1.70;;
75634;SDS011;64227;48.724;9.104;2022-12-28T00:17:14;2.95;;;1.60;;
75634;SDS011;64227;48.724;9.104;2022-12-28T00:19:39;4.28;;;1.30;;
75634;SDS011;64227;48.724;9.104;2022-12-28T00:22:05;2.08;;;1.50;;
75634;SDS011;64227;48.724;9.104;2022-12-28T00:24:30;3.07;;;1.70;;
75634;SDS011;64227;48.724;9.104;2022-12-28T00:26:55;2.47;;;1.60;;
75634;SDS011;64227;48.724;9.104;2022-12-28T00:29:21;2.83;;;2.00;;
75634;SDS011;64227;48.724;9.104;2022-12-28T00:31:46;1.83;;;1.30;;
75634;SDS011;64227;48.724;9.104;2022-12-28T00:34:11;2.88;;;1.50;;
75634;SDS011;64227;48.724;9.104;2022-12-28T00:36:37;2.95;;;1.42;;
75634;SDS011;64227;48.724;9.104;2022-12-28T00:39:02;2.73;;;1.57;;
75634;SDS011;64227;48.724;9.104;2022-12-28T00:41:27;3.08;;;1.60;;
75634;SDS011;64227;48.724;9.104;2022-12-28T00:43:53;8.03;;;2.33;;
75634;SDS011;64227;48.724;9.104;2022-12-28T00:46:18;3.13;;;1.50;;
75634;SDS011;64227;48.724;9.104;2022-12-28T00:48:43;2.33;;;1.65;;
75634;SDS011;64227;48.724;9.104;2022-12-28T00:51:13;2.65;;;1.58;;
75634;SDS011;64227;48.724;9.104;2022-12-28T00:53:39;2.78;;;1.35;;
75634;SDS011;64227;48.724;9.104;2022-12-28T00:56:09;2.90;;;1.38;;
75634;SDS011;64227;48.724;9.104;2022-12-28T00:58:36;1.58;;;0.88;;
75634;SDS011;64227;48.724;9.104;2022-12-28T01:01:01;1.48;;;1.10;;
75634;SDS011;64227;48.724;9.104;2022-12-28T01:03:27;2.40;;;1.48;;
75634;SDS011;64227;48.724;9.104;2022-12-28T01:05:53;2.33;;;1.38;;
75634;SDS011;64227;48.724;9.104;2022-12-28T01:08:18;2.60;;;1.33;;
75634;SDS011;64227;48.724;9.104;2022-12-28T01:10:43;2.22;;;1.20;;
75634;SDS011;64227;48.724;9.104;2022-12-28T01:13:09;1.80;;;1.27;;
75634;SDS011;64227;48.724;9.104;2022-12-28T01:15:34;2.50;;;1.57;;
75634;SDS011;64227;48.724;9.104;2022-12-28T01:17:59;2.85;;;1.63;;
75634;SDS011;64227;48.724;9.104;2022-12-28T01:20:25;4.20;;;1.73;;
75634;SDS011;64227;48.724;9.104;2022-12-28T01:22:50;3.58;;;1.10;;
75634;SDS011;64227;48.724;9.104;2022-12-28T01:25:15;2.40;;;1.60;;
75634;SDS011;64227;48.724;9.104;2022-12-28T01:27:41;2.42;;;1.40;;
75634;SDS011;64227;48.724;9.104;2022-12-28T01:30:06;2.33;;;1.20;;
75634;SDS011;64227;48.724;9.104;2022-12-28T01:32:32;8.45;;;1.65;;
75634;SDS011;64227;48.724;9.104;2022-12-28T01:34:57;2.85;;;1.40;;
75634;SDS011;64227;48.724;9.104;2022-12-28T01:37:23;1.90;;;1.23;;
75634;SDS011;64227;48.724;9.104;2022-12-28T01:39:48;1.83;;;1.27;;
75634;SDS011;64227;48.724;9.104;2022-12-28T01:42:17;2.17;;;1.67;;
75634;SDS011;64227;48.724;9.104;2022-12-28T01:44:47;2.40;;;1.35;;
75634;SDS011;64227;48.724;9.104;2022-12-28T01:47:14;1.55;;;1.25;;
75634;SDS011;64227;48.724;9.104;2022-12-28T01:49:54;2.70;;;1.17;;
75634;SDS011;64227;48.724;9.104;2022-12-28T01:57:15;1.55;;;1.23;;
75634;SDS011;64227;48.724;9.104;2022-12-28T01:59:43;1.73;;;1.30;;
75634;SDS011;64227;48.724;9.104;2022-12-28T02:02:11;1.75;;;1.10;;
75634;SDS011;64227;48.724;9.104;2022-12-28T02:04:37;1.42;;;1.05;;
75634;SDS011;64227;48.724;9.104;2022-12-28T02:07:02;1.20;;;1.10;;
75634;SDS011;64227;48.724;9.104;2022-12-28T02:09:29;1.20;;;0.93;;
75634;SDS011;64227;48.724;9.104;2022-12-28T02:14:22;2.73;;;1.00;;
75634;SDS011;64227;48.724;9.104;2022-12-28T02:16:48;1.30;;;0.90;;
75634;SDS011;64227;48.724;9.104;2022-12-28T02:19:14;1.48;;;1.25;;
75634;SDS011;64227;48.724;9.104;2022-12-28T02:24:37;1.15;;;0.77;;
75634;SDS011;64227;48.724;9.104;2022-12-28T02:27:21;3.20;;;0.80;;
75634;SDS011;64227;48.724;9.104;2022-12-28T02:32:28;1.08;;;0.60;;
75634;SDS011;64227;48.724;9.104;2022-12-28T02:35:05;2.63;;;1.10;;
75634;SDS011;64227;48.724;9.104;2022-12-28T02:42:44;1.05;;;0.65;;
75634;SDS011;64227;48.724;9.104;2022-12-28T02:45:28;0.73;;;0.50;;
75634;SDS011;64227;48.724;9.104;2022-12-28T02:48:13;1.92;;;0.70;;
75634;SDS011;64227;48.724;9.104;2022-12-28T02:56:31;0.75;;;0.50;;
75634;SDS011;64227;48.724;9.104;2022-12-28T02:59:15;0.35;;;0.35;;
75634;SDS011;64227;48.724;9.104;2022-12-28T03:01:58;2.72;;;0.70;;
75634;SDS011;64227;48.724;9.104;2022-12-28T03:08:04;0.70;;;0.50;;
75634;SDS011;64227;48.724;9.104;2022-12-28T03:10:27;0.57;;;0.40;;
75634;SDS011;64227;48.724;9.104;2022-12-28T03:13:00;2.22;;;0.63;;
75634;SDS011;64227;48.724;9.104;2022-12-28T03:15:29;2.17;;;0.65;;
75634;SDS011;64227;48.724;9.104;2022-12-28T03:18:11;0.70;;;0.68;;
75634;SDS011;64227;48.724;9.104;2022-12-28T03:20:58;0.68;;;0.52;;
75634;SDS011;64227;48.724;9.104;2022-12-28T03:23:45;0.50;;;0.50;;
75634;SDS011;64227;48.724;9.104;2022-12-28T03:26:30;1.15;;;0.75;;
75634;SDS011;64227;48.724;9.104;2022-12-28T03:29:15;1.67;;;0.55;;
75634;SDS011;64227;48.724;9.104;2022-12-28T03:32:01;0.80;;;0.77;;
75634;SDS011;64227;48.724;9.104;2022-12-28T03:34:26;0.70;;;0.70;;
75634;SDS011;64227;48.724;9.104;2022-12-28T03:39:44;0.60;;;0.60;;
75634;SDS011;64227;48.724;9.104;2022-12-28T03:42:14;0.60;;;0.60;;
75634;SDS011;64227;48.724;9.104;2022-12-28T03:45:07;0.82;;;0.57;;
75634;SDS011;64227;48.724;9.104;2022-12-28T03:47:36;1.90;;;0.50;;
75634;SDS011;64227;48.724;9.104;2022-12-28T03:50:03;0.98;;;0.43;;
75634;SDS011;64227;48.724;9.104;2022-12-28T03:52:29;1.65;;;0.30;;
75634;SDS011;64227;48.724;9.104;2022-12-28T03:54:55;0.82;;;0.50;;
75634;SDS011;64227;48.724;9.104;2022-12-28T03:57:21;0.50;;;0.50;;
75634;SDS011;64227;48.724;9.104;2022-12-28T03:59:47;0.68;;;0.68;;
75634;SDS011;64227;48.724;9.104;2022-12-28T04:02:12;0.73;;;0.33;;
75634;SDS011;64227;48.724;9.104;2022-12-28T04:04:37;0.50;;;0.40;;
75634;SDS011;64227;48.724;9.104;2022-12-28T04:07:03;1.23;;;0.60;;
75634;SDS011;64227;48.724;9.104;2022-12-28T04:09:28;1.40;;;0.67;;
75634;SDS011;64227;48.724;9.104;2022-12-28T04:11:56;0.60;;;0.30;;
75634;SDS011;64227;48.724;9.104;2022-12-28T04:14:21;0.40;;;0.40;;
75634;SDS011;64227;48.724;9.104;2022-12-28T04:16:46;1.30;;;0.70;;
75634;SDS011;64227;48.724;9.104;2022-12-28T04:19:12;0.50;;;0.50;;
75634;SDS011;64227;48.724;9.104;2022-12-28T04:21:37;1.25;;;0.52;;
75634;SDS011;64227;48.724;9.104;2022-12-28T04:24:02;0.50;;;0.50;;
75634;SDS011;64227;48.724;9.104;2022-12-28T04:26:28;0.57;;;0.43;;
75634;SDS011;64227;48.724;9.104;2022-12-28T04:28:53;2.28;;;0.50;;
75634;SDS011;64227;48.724;9.104;2022-12-28T04:31:21;0.93;;;0.88;;
75634;SDS011;64227;48.724;9.104;2022-12-28T04:33:47;0.52;;;0.40;;
75634;SDS011;64227;48.724;9.104;2022-12-28T04:36:13;0.60;;;0.50;;
75634;SDS011;64227;48.724;9.104;2022-12-28T04:38:39;1.85;;;0.63;;
75634;SDS011;64227;48.724;9.104;2022-12-28T04:41:05;1.67;;;0.70;;
75634;SDS011;64227;48.724;9.104;2022-12-28T04:43:31;0.25;;;0.25;;
75634;SDS011;64227;48.724;9.104;2022-12-28T04:46:05;0.82;;;0.60;;
75634;SDS011;64227;48.724;9.104;2022-12-28T04:48:32;1.23;;;0.40;;
75634;SDS011;64227;48.724;9.104;2022-12-28T04:50:58;1.08;;;0.68;;
75634;SDS011;64227;48.724;9.104;2022-12-28T04:53:23;1.15;;;0.50;;
75634;SDS011;64227;48.724;9.104;2022-12-28T04:55:48;0.57;;;0.50;;
75634;SDS011;64227;48.724;9.104;2022-12-28T04:58:14;0.98;;;0.60;;
75634;SDS011;64227;48.724;9.104;2022-12-28T05:00:39;1.48;;;0.60;;
75634;SDS011;64227;48.724;9.104;2022-12-28T05:03:05;2.40;;;0.77;;
75634;SDS011;64227;48.724;9.104;2022-12-28T05:05:31;5.18;;;1.40;;
75634;SDS011;64227;48.724;9.104;2022-12-28T05:07:59;1.13;;;0.60;;
75634;SDS011;64227;48.724;9.104;2022-12-28T05:10:25;0.73;;;0.55;;
75634;SDS011;64227;48.724;9.104;2022-12-28T05:12:50;1.00;;;0.52;;
75634;SDS011;64227;48.724;9.104;2022-12-28T05:15:16;4.15;;;0.60;;
75634;SDS011;64227;48.724;9.104;2022-12-28T05:17:41;1.13;;;0.60;;
75634;SDS011;64227;48.724;9.104;2022-12-28T05:20:06;2.20;;;0.60;;
75634;SDS011;64227;48.724;9.104;2022-12-28T05:22:32;3.38;;;0.90;;
75634;SDS011;64227;48.724;9.104;2022-12-28T05:24:58;1.63;;;0.80;;
75634;SDS011;64227;48.724;9.104;2022-12-28T05:27:23;1.47;;;0.50;;
75634;SDS011;64227;48.724;9.104;2022-12-28T05:29:48;1.08;;;0.57;;
75634;SDS011;64227;48.724;9.104;2022-12-28T05:32:13;0.35;;;0.35;;
75634;SDS011;64227;48.724;9.104;2022-12-28T05:34:39;0.85;;;0.50;;
75634;SDS011;64227;48.724;9.104;2022-12-28T05:37:04;2.25;;;0.40;;
75634;SDS011;64227;48.724;9.104;2022-12-28T05:39:29;0.40;;;0.38;;
75634;SDS011;64227;48.724;9.104;2022-12-28T05:41:55;1.90;;;0.53;;
75634;SDS011;64227;48.724;9.104;2022-12-28T05:44:24;0.70;;;0.50;;
75634;SDS011;64227;48.724;9.104;2022-12-28T05:46:50;1.95;;;0.50;;
75634;SDS011;64227;48.724;9.104;2022-12-28T05:49:15;2.72;;;0.60;;
75634;SDS011;64227;48.724;9.104;2022-12-28T05:51:40;0.53;;;0.50;;
75634;SDS011;64227;48.724;9.104;2022-12-28T05:54:06;0.63;;;0.43;;
75634;SDS011;64227;48.724;9.104;2022-12-28T05:56:31;1.05;;;0.70;;
75634;SDS011;64227;48.724;9.104;2022-12-28T05:59:00;2.00;;;0.93;;
75634;SDS011;64227;48.724;9.104;2022-12-28T06:01:28;2.30;;;0.93;;
75634;SDS011;64227;48.724;9.104;2022-12-28T06:03:59;1.60;;;0.43;;
75634;SDS011;64227;48.724;9.104;2022-12-28T06:06:26;0.88;;;0.55;;
75634;SDS011;64227;48.724;9.104;2022-12-28T06:08:52;0.30;;;0.30;;
75634;SDS011;64227;48.724;9.104;2022-12-28T06:11:19;1.52;;;0.50;;
75634;SDS011;64227;48.724;9.104;2022-12-28T06:13:45;2.30;;;0.50;;
75634;SDS011;64227;48.724;9.104;2022-12-28T06:16:12;1.75;;;0.63;;
75634;SDS011;64227;48.724;9.104;2022-12-28T06:18:41;1.08;;;0.60;;
75634;SDS011;64227;48.724;9.104;2022-12-28T06:21:15;0.57;;;0.55;;
75634;SDS011;64227;48.724;9.104;2022-12-28T06:23:42;0.52;;;0.40;;
75634;SDS011;64227;48.724;9.104;2022-12-28T06:26:09;1.75;;;0.50;;
75634;SDS011;64227;48.724;9.104;2022-12-28T06:28:36;0.75;;;0.50;;
75634;SDS011;64227;48.724;9.104;2022-12-28T06:31:03;1.52;;;0.60;;
75634;SDS011;64227;48.724;9.104;2022-12-28T06:33:29;0.93;;;0.50;;
75634;SDS011;64227;48.724;9.104;2022-12-28T06:35:54;0.52;;;0.45;;
75634;SDS011;64227;48.724;9.104;2022-12-28T06:38:20;0.70;;;0.60;;
75634;SDS011;64227;48.724;9.104;2022-12-28T06:40:45;0.93;;;0.67;;
75634;SDS011;64227;48.724;9.104;2022-12-28T06:43:10;0.70;;;0.60;;
75634;SDS011;64227;48.724;9.104;2022-12-28T06:45:35;1.73;;;0.50;;
75634;SDS011;64227;48.724;9.104;2022-12-28T06:48:01;3.43;;;0.80;;
75634;SDS011;64227;48.724;9.104;2022-12-28T06:50:26;0.50;;;0.50;;
75634;SDS011;64227;48.724;9.104;2022-12-28T06:52:51;2.83;;;1.00;;
75634;SDS011;64227;48.724;9.104;2022-12-28T06:55:17;1.40;;;0.97;;
75634;SDS011;64227;48.724;9.104;2022-12-28T06:57:42;1.40;;;0.83;;
75634;SDS011;64227;48.724;9.104;2022-12-28T07:00:07;1.33;;;0.90;;
75634;SDS011;64227;48.724;9.104;2022-12-28T07:02:33;0.60;;;0.50;;
75634;SDS011;64227;48.724;9.104;2022-12-28T07:04:59;1.90;;;1.08;;
75634;SDS011;64227;48.724;9.104;2022-12-28T07:07:24;3.10;;;1.65;;
75634;SDS011;64227;48.724;9.104;2022-12-28T07:09:49;1.98;;;1.17;;
75634;SDS011;64227;48.724;9.104;2022-12-28T07:12:14;4.27;;;2.07;;
75634;SDS011;64227;48.724;9.104;2022-12-28T07:14:40;4.35;;;1.95;;
75634;SDS011;64227;48.724;9.104;2022-12-28T07:17:05;2.85;;;2.10;;
75634;SDS011;64227;48.724;9.104;2022-12-28T07:19:30;3.65;;;1.58;;
75634;SDS011;64227;48.724;9.104;2022-12-28T07:21:56;1.42;;;1.23;;
75634;SDS011;64227;48.724;9.104;2022-12-28T07:24:21;1.50;;;0.80;;
75634;SDS011;64227;48.724;9.104;2022-12-28T07:26:46;0.93;;;0.60;;
75634;SDS011;64227;48.724;9.104;2022-12-28T07:29:12;1.50;;;0.75;;
75634;SDS011;64227;48.724;9.104;2022-12-28T07:31:38;1.00;;;0.70;;
75634;SDS011;64227;48.724;9.104;2022-12-28T07:34:04;1.83;;;0.60;;
75634;SDS011;64227;48.724;9.104;2022-12-28T07:36:30;1.25;;;0.90;;
75634;SDS011;64227;48.724;9.104;2022-12-28T07:38:56;1.05;;;0.70;;
75634;SDS011;64227;48.724;9.104;2022-12-28T07:41:22;0.77;;;0.65;;
75634;SDS011;64227;48.724;9.104;2022-12-28T07:43:49;0.70;;;0.60;;
75634;SDS011;64227;48.724;9.104;2022-12-28T07:48:41;0.77;;;0.70;;
75634;SDS011;64227;48.724;9.104;2022-12-28T07:51:08;1.02;;;0.63;;
75634;SDS011;64227;48.724;9.104;2022-12-28T07:53:38;1.17;;;0.60;;
75634;SDS011;64227;48.724;9.104;2022-12-28T07:56:04;0.50;;;0.40;;
75634;SDS011;64227;48.724;9.104;2022-12-28T07:58:30;1.42;;;0.60;;
75634;SDS011;64227;48.724;9.104;2022-12-28T08:03:34;0.50;;;0.38;;
75634;SDS011;64227;48.724;9.104;2022-12-28T08:08:36;0.80;;;0.80;;
75634;SDS011;64227;48.724;9.104;2022-12-28T08:11:04;2.40;;;0.95;;
75634;SDS011;64227;48.724;9.104;2022-12-28T08:13:32;1.67;;;0.70;;
75634;SDS011;64227;48.724;9.104;2022-12-28T08:15:58;1.20;;;0.70;;
75634;SDS011;64227;48.724;9.104;2022-12-28T08:18:24;2.20;;;0.75;;
75634;SDS011;64227;48.724;9.104;2022-12-28T08:20:50;1.60;;;0.77;;
75634;SDS011;64227;48.724;9.104;2022-12-28T08:23:15;18.75;;;6.70;;
75634;SDS011;64227;48.724;9.104;2022-12-28T08:25:40;15.15;;;6.35;;
75634;SDS011;64227;48.724;9.104;2022-12-28T08:28:05;7.70;;;4.23;;
75634;SDS011;64227;48.724;9.104;2022-12-28T08:30:31;5.13;;;2.77;;
75634;SDS011;64227;48.724;9.104;2022-12-28T08:32:56;3.70;;;2.22;;
75634;SDS011;64227;48.724;9.104;2022-12-28T08:35:31;3.77;;;1.43;;
75634;SDS011;64227;48.724;9.104;2022-12-28T08:37:56;2.10;;;0.80;;
75634;SDS011;64227;48.724;9.104;2022-12-28T08:40:21;1.13;;;0.98;;
75634;SDS011;64227;48.724;9.104;2022-12-28T08:42:51;1.77;;;1.10;;
75634;SDS011;64227;48.724;9.104;2022-12-28T08:45:18;1.15;;;0.70;;
75634;SDS011;64227;48.724;9.104;2022-12-28T08:47:43;2.38;;;1.30;;
75634;SDS011;64227;48.724;9.104;2022-12-28T08:50:08;2.78;;;1.25;;
75634;SDS011;64227;48.724;9.104;2022-12-28T08:52:33;2.90;;;0.98;;
75634;SDS011;64227;48.724;9.104;2022-12-28T08:54:59;1.38;;;0.70;;
75634;SDS011;64227;48.724;9.104;2022-12-28T08:57:24;0.60;;;0.50;;
75634;SDS011;64227;48.724;9.104;2022-12-28T08:59:49;1.03;;;0.80;;
75634;SDS011;64227;48.724;9.104;2022-12-28T09:02:15;1.17;;;0.83;;
75634;SDS011;64227;48.724;9.104;2022-12-28T09:04:40;2.57;;;0.87;;
75634;SDS011;64227;48.724;9.104;2022-12-28T09:07:06;2.60;;;0.93;;
75634;SDS011;64227;48.724;9.104;2022-12-28T09:09:31;2.13;;;1.05;;
75634;SDS011;64227;48.724;9.104;2022-12-28T09:11:58;2.08;;;1.17;;
75634;SDS011;64227;48.724;9.104;2022-12-28T09:14:23;1.65;;;0.93;;
75634;SDS011;64227;48.724;9.104;2022-12-28T09:16:49;1.88;;;1.10;;
75634;SDS011;64227;48.724;9.104;2022-12-28T09:19:15;2.17;;;0.90;;
75634;SDS011;64227;48.724;9.104;2022-12-28T09:21:40;1.60;;;0.68;;
75634;SDS011;64227;48.724;9.104;2022-12-28T09:24:06;1.52;;;0.70;;
75634;SDS011;64227;48.724;9.104;2022-12-28T09:26:35;0.85;;;0.70;;
75634;SDS011;64227;48.724;9.104;2022-12-28T09:29:02;2.08;;;0.88;;
75634;SDS011;64227;48.724;9.104;2022-12-28T09:31:29;1.13;;;0.95;;
75634;SDS011;64227;48.724;9.104;2022-12-28T09:33:55;0.57;;;0.40;;
75634;SDS011;64227;48.724;9.104;2022-12-28T09:38:54;1.88;;;0.63;;
75634;SDS011;64227;48.724;9.104;2022-12-28T09:42:03;1.33;;;0.50;;
75634;SDS011;64227;48.724;9.104;2022-12-28T09:53:04;1.20;;;0.40;;
75634;SDS011;64227;48.724;9.104;2022-12-28T09:55:40;0.50;;;0.30;;
75634;SDS011;64227;48.724;9.104;2022-12-28T09:58:15;0.50;;;0.20;;
75634;SDS011;64227;48.724;9.104;2022-12-28T10:00:42;1.08;;;0.20;;
75634;SDS011;64227;48.724;9.104;2022-12-28T10:03:18;0.85;;;0.40;;
75634;SDS011;64227;48.724;9.104;2022-12-28T10:05:45;1.25;;;0.50;;
75634;SDS011;64227;48.724;9.104;2022-12-28T10:08:12;0.60;;;0.38;;
75634;SDS011;64227;48.724;9.104;2022-12-28T10:10:39;0.43;;;0.40;;
75634;SDS011;64227;48.724;9.104;2022-12-28T10:13:13;0.57;;;0.50;;
75634;SDS011;64227;48.724;9.104;2022-12-28T10:15:39;1.50;;;0.50;;
75634;SDS011;64227;48.724;9.104;2022-12-28T10:18:05;0.73;;;0.35;;
75634;SDS011;64227;48.724;9.104;2022-12-28T10:20:30;0.95;;;0.28;;
75634;SDS011;64227;48.724;9.104;2022-12-28T10:22:56;0.40;;;0.40;;
75634;SDS011;64227;48.724;9.104;2022-12-28T10:25:23;0.30;;;0.30;;
75634;SDS011;64227;48.724;9.104;2022-12-28T10:27:50;0.47;;;0.32;;
75634;SDS011;64227;48.724;9.104;2022-12-28T10:30:17;0.40;;;0.40;;
75634;SDS011;64227;48.724;9.104;2022-12-28T10:32:51;2.33;;;0.35;;
75634;SDS011;64227;48.724;9.104;2022-12-28T10:35:27;0.77;;;0.40;;
75634;SDS011;64227;48.724;9.104;2022-12-28T10:37:57;1.40;;;0.45;;
75634;SDS011;64227;48.724;9.104;2022-12-28T10:40:26;1.27;;;0.40;;
75634;SDS011;64227;48.724;9.104;2022-12-28T10:42:53;0.98;;;0.40;;
75634;SDS011;64227;48.724;9.104;2022-12-28T10:45:33;0.20;;;0.20;;
75634;SDS011;64227;48.724;9.104;2022-12-28T10:48:00;0.47;;;0.30;;
75634;SDS011;64227;48.724;9.104;2022-12-28T10:50:43;1.25;;;0.45;;
75634;SDS011;64227;48.724;9.104;2022-12-28T10:55:41;0.60;;;0.30;;
75634;SDS011;64227;48.724;9.104;2022-12-28T10:58:15;0.25;;;0.25;;
75634;SDS011;64227;48.724;9.104;2022-12-28T11:00:51;0.32;;;0.30;;
75634;SDS011;64227;48.724;9.104;2022-12-28T11:03:20;1.10;;;0.38;;
75634;SDS011;64227;48.724;9.104;2022-12-28T11:05:48;1.00;;;0.30;;
75634;SDS011;64227;48.724;9.104;2022-12-28T11:08:13;0.77;;;0.40;;
75634;SDS011;64227;48.724;9.104;2022-12-28T11:10:39;0.20;;;0.20;;
75634;SDS011;64227;48.724;9.104;2022-12-28T11:13:05;0.65;;;0.57;;
75634;SDS011;64227;48.724;9.104;2022-12-28T11:15:40;1.70;;;0.50;;
75634;SDS011;64227;48.724;9.104;2022-12-28T11:18:26;0.88;;;0.40;;
75634;SDS011;64227;48.724;9.104;2022-12-28T11:20:53;0.73;;;0.30;;
75634;SDS011;64227;48.724;9.104;2022-12-28T11:23:22;0.65;;;0.20;;
75634;SDS011;64227;48.724;9.104;2022-12-28T11:25:49;0.85;;;0.30;;
75634;SDS011;64227;48.724;9.104;2022-12-28T11:28:17;2.28;;;0.40;;
75634;SDS011;64227;48.724;9.104;2022-12-28T11:30:44;1.42;;;0.45;;
75634;SDS011;64227;48.724;9.104;2022-12-28T11:33:27;0.80;;;0.30;;
75634;SDS011;64227;48.724;9.104;2022-12-28T11:35:57;0.68;;;0.38;;
75634;SDS011;64227;48.724;9.104;2022-12-28T11:41:11;0.30;;;0.30;;
75634;SDS011;64227;48.724;9.104;2022-12-28T11:44:06;0.52;;;0.20;;
75634;SDS011;64227;48.724;9.104;2022-12-28T11:46:55;0.30;;;0.30;;
75634;SDS011;64227;48.724;9.104;2022-12-28T11:49:40;0.40;;;0.28;;
75634;SDS011;64227;48.724;9.104;2022-12-28T11:52:49;0.82;;;0.40;;
75634;SDS011;64227;48.724;9.104;2022-12-28T11:54:59;0.60;;;0.40;;
75634;SDS011;64227;48.724;9.104;2022-12-28T11:57:34;0.50;;;0.30;;
75634;SDS011;64227;48.724;9.104;2022-12-28T12:02:44;0.77;;;0.55;;
75634;SDS011;64227;48.724;9.104;2022-12-28T12:15:47;0.30;;;0.30;;
75634;SDS011;64227;48.724;9.104;2022-12-28T12:18:35;0.38;;;0.30;;
75634;SDS011;64227;48.724;9.104;2022-12-28T12:21:29;1.50;;;0.43;;
75634;SDS011;64227;48.724;9.104;2022-12-28T12:24:16;0.28;;;0.28;;
75634;SDS011;64227;48.724;9.104;2022-12-28T12:27:18;0.43;;;0.32;;
75634;SDS011;64227;48.724;9.104;2022-12-28T12:29:44;0.73;;;0.30;;
75634;SDS011;64227;48.724;9.104;2022-12-28T12:32:18;1.50;;;0.40;;
75634;SDS011;64227;48.724;9.104;2022-12-28T12:34:48;0.77;;;0.60;;
75634;SDS011;64227;48.724;9.104;2022-12-28T12:37:27;1.35;;;0.80;;
75634;SDS011;64227;48.724;9.104;2022-12-28T12:42:50;1.05;;;0.43;;
75634;SDS011;64227;48.724;9.104;2022-12-28T12:45:42;1.30;;;0.50;;
75634;SDS011;64227;48.724;9.104;2022-12-28T12:48:16;1.08;;;0.50;;
75634;SDS011;64227;48.724;9.104;2022-12-28T12:51:02;0.50;;;0.50;;
75634;SDS011;64227;48.724;9.104;2022-12-28T12:57:00;1.48;;;0.43;;
75634;SDS011;64227;48.724;9.104;2022-12-28T13:05:40;1.77;;;0.40;;
75634;SDS011;64227;48.724;9.104;2022-12-28T13:08:13;1.70;;;0.63;;
75634;SDS011;64227;48.724;9.104;2022-12-28T13:10:43;1.10;;;0.40;;
75634;SDS011;64227;48.724;9.104;2022-12-28T13:13:12;1.00;;;0.60;;
75634;SDS011;64227;48.724;9.104;2022-12-28T13:15:42;2.53;;;0.60;;
75634;SDS011;64227;48.724;9.104;2022-12-28T13:18:18;1.77;;;0.77;;
75634;SDS011;64227;48.724;9.104;2022-12-28T13:20:57;0.60;;;0.40;;
75634;SDS011;64227;48.724;9.104;2022-12-28T13:23:24;0.63;;;0.43;;
75634;SDS011;64227;48.724;9.104;2022-12-28T13:25:51;0.98;;;0.55;;
75634;SDS011;64227;48.724;9.104;2022-12-28T13:28:26;1.23;;;0.50;;
75634;SDS011;64227;48.724;9.104;2022-12-28T13:31:08;0.38;;;0.38;;
75634;SDS011;64227;48.724;9.104;2022-12-28T13:33:56;0.38;;;0.38;;
75634;SDS011;64227;48.724;9.104;2022-12-28T13:36:22;0.65;;;0.47;;
75634;SDS011;64227;48.724;9.104;2022-12-28T13:38:58;0.50;;;0.40;;
75634;SDS011;64227;48.724;9.104;2022-12-28T13:41:34;2.78;;;0.60;;
75634;SDS011;64227;48.724;9.104;2022-12-28T13:46:35;1.25;;;0.68;;
75634;SDS011;64227;48.724;9.104;2022-12-28T13:49:01;0.40;;;0.30;;
75634;SDS011;64227;48.724;9.104;2022-12-28T13:51:27;1.00;;;0.60;;
75634;SDS011;64227;48.724;9.104;2022-12-28T13:53:54;1.75;;;0.77;;
75634;SDS011;64227;48.724;9.104;2022-12-28T13:56:21;0.52;;;0.35;;
75634;SDS011;64227;48.724;9.104;2022-12-28T13:58:48;0.75;;;0.60;;
75634;SDS011;64227;48.724;9.104;2022-12-28T14:01:16;0.40;;;0.40;;
75634;SDS011;64227;48.724;9.104;2022-12-28T14:03:45;1.05;;;0.70;;
75634;SDS011;64227;48.724;9.104;2022-12-28T14:06:12;0.85;;;0.57;;
75634;SDS011;64227;48.724;9.104;2022-12-28T14:08:38;0.68;;;0.50;;
75634;SDS011;64227;48.724;9.104;2022-12-28T14:11:04;0.68;;;0.55;;
75634;SDS011;64227;48.724;9.104;2022-12-28T14:13:30;2.15;;;0.60;;
75634;SDS011;64227;48.724;9.104;2022-12-28T14:15:56;1.48;;;0.73;;
75634;SDS011;64227;48.724;9.104;2022-12-28T14:18:22;1.25;;;0.45;;
75634;SDS011;64227;48.724;9.104;2022-12-28T14:20:51;1.38;;;0.55;;
75634;SDS011;64227;48.724;9.104;2022-12-28T14:23:21;1.15;;;0.60;;
75634;SDS011;64227;48.724;9.104;2022-12-28T14:25:48;0.52;;;0.40;;
75634;SDS011;64227;48.724;9.104;2022-12-28T14:28:21;1.92;;;0.63;;
75634;SDS011;64227;48.724;9.104;2022-12-28T14:30:58;1.05;;;0.40;;
75634;SDS011;64227;48.724;9.104;2022-12-28T14:33:24;0.50;;;0.50;;
75634;SDS011;64227;48.724;9.104;2022-12-28T14:35:52;1.52;;;0.40;;
75634;SDS011;64227;48.724;9.104;2022-12-28T14:38:19;0.68;;;0.50;;
75634;SDS011;64227;48.724;9.104;2022-12-28T14:40:56;1.25;;;0.70;;
75634;SDS011;64227;48.724;9.104;2022-12-28T14:43:23;1.23;;;0.75;;
75634;SDS011;64227;48.724;9.104;2022-12-28T14:45:50;2.45;;;0.60;;
75634;SDS011;64227;48.724;9.104;2022-12-28T14:48:23;1.92;;;0.80;;
75634;SDS011;64227;48.724;9.104;2022-12-28T14:50:55;1.92;;;0.77;;
75634;SDS011;64227;48.724;9.104;2022-12-28T14:53:22;3.25;;;0.75;;
75634;SDS011;64227;48.724;9.104;2022-12-28T14:58:18;0.85;;;0.60;;
75634;SDS011;64227;48.724;9.104;2022-12-28T15:00:59;2.67;;;0.88;;
75634;SDS011;64227;48.724;9.104;2022-12-28T15:03:26;0.50;;;0.40;;
75634;SDS011;64227;48.724;9.104;2022-12-28T15:05:55;0.70;;;0.52;;
75634;SDS011;64227;48.724;9.104;2022-12-28T15:08:22;1.30;;;0.70;;
75634;SDS011;64227;48.724;9.104;2022-12-28T15:10:51;2.35;;;0.93;;
75634;SDS011;64227;48.724;9.104;2022-12-28T15:13:18;1.15;;;0.80;;
75634;SDS011;64227;48.724;9.104;2022-12-28T15:15:52;0.52;;;0.40;;
75634;SDS011;64227;48.724;9.104;2022-12-28T15:18:21;0.73;;;0.50;;
75634;SDS011;64227;48.724;9.104;2022-12-28T15:20:47;1.75;;;0.70;;
75634;SDS011;64227;48.724;9.104;2022-12-28T15:23:12;0.88;;;0.55;;
75634;SDS011;64227;48.724;9.104;2022-12-28T15:25:37;1.45;;;0.50;;
75634;SDS011;64227;48.724;9.104;2022-12-28T15:28:03;2.67;;;0.60;;
75634;SDS011;64227;48.724;9.104;2022-12-28T15:30:28;0.82;;;0.57;;
75634;SDS011;64227;48.724;9.104;2022-12-28T15:32:54;1.05;;;0.68;;
75634;SDS011;64227;48.724;9.104;2022-12-28T15:35:19;1.83;;;0.60;;
75634;SDS011;64227;48.724;9.104;2022-12-28T15:37:44;1.50;;;0.68;;
75634;SDS011;64227;48.724;9.104;2022-12-28T15:40:10;1.23;;;0.60;;
75634;SDS011;64227;48.724;9.104;2022-12-28T15:42:35;2.00;;;1.05;;
75634;SDS011;64227;48.724;9.104;2022-12-28T15:45:01;3.47;;;0.80;;
75634;SDS011;64227;48.724;9.104;2022-12-28T15:47:26;1.65;;;0.65;;
75634;SDS011;64227;48.724;9.104;2022-12-28T15:49:51;1.83;;;1.25;;
75634;SDS011;64227;48.724;9.104;2022-12-28T15:52:17;1.85;;;1.13;;
75634;SDS011;64227;48.724;9.104;2022-12-28T15:54:42;2.78;;;1.10;;
75634;SDS011;64227;48.724;9.104;2022-12-28T15:57:07;1.13;;;0.93;;
75634;SDS011;64227;48.724;9.104;2022-12-28T15:59:35;2.05;;;1.08;;
75634;SDS011;64227;48.724;9.104;2022-12-28T16:02:01;3.00;;;0.97;;
75634;SDS011;64227;48.724;9.104;2022-12-28T16:04:26;0.98;;;0.60;;
75634;SDS011;64227;48.724;9.104;2022-12-28T16:06:51;1.65;;;0.90;;
75634;SDS011;64227;48.724;9.104;2022-12-28T16:09:17;2.00;;;0.90;;
75634;SDS011;64227;48.724;9.104;2022-12-28T16:11:42;2.35;;;0.95;;
75634;SDS011;64227;48.724;9.104;2022-12-28T16:14:10;2.55;;;0.80;;
75634;SDS011;64227;48.724;9.104;2022-12-28T16:16:39;0.68;;;0.60;;
75634;SDS011;64227;48.724;9.104;2022-12-28T16:19:04;0.68;;;0.65;;
75634;SDS011;64227;48.724;9.104;2022-12-28T16:21:30;1.10;;;0.75;;